sensor_id;sensor_type;location;lat;lon;timestamp;pressure;altitude;pressure_sealevel;temperature;humidity
66762;BME280;53672;48.176;16.338;2023-03-13T00:03:20;99022.91;;;7.15;59.42
66762;BME280;53672;48.176;16.338;2023-03-13T00:08:21;99019.06;;;7.01;60.90
66762;BME280;53672;48.176;16.338;2023-03-13T00:13:23;99002.44;;;6.94;61.82
66762;BME280;53672;48.176;16.338;2023-03-13T00:18:23;99005.16;;;7.04;62.49
66762;BME280;53672;48.176;16.338;2023-03-13T00:23:24;98994.16;;;7.00;62.58
66762;BME280;53672;48.176;16.338;2023-03-13T00:28:26;98995.72;;;6.91;63.57
66762;BME280;53672;48.176;16.338;2023-03-13T00:33:27;98976.16;;;6.91;63.57
66762;BME280;53672;48.176;16.338;2023-03-13T00:38:28;98968.94;;;6.91;63.94
66762;BME280;53672;48.176;16.338;2023-03-13T00:43:31;98967.59;;;6.94;63.73
66762;BME280;53672;48.176;16.338;2023-03-13T00:48:32;98959.22;;;6.85;64.05
66762;BME280;53672;48.176;16.338;2023-03-13T00:53:32;98953.31;;;6.78;64.37
66762;BME280;53672;48.176;16.338;2023-03-13T00:58:36;98952.97;;;6.64;64.63
66762;BME280;53672;48.176;16.338;2023-03-13T01:03:37;98956.38;;;6.55;65.16
66762;BME280;53672;48.176;16.338;2023-03-13T01:08:39;98950.44;;;6.48;65.79
66762;BME280;53672;48.176;16.338;2023-03-13T01:13:41;98953.72;;;6.55;65.39
66762;BME280;53672;48.176;16.338;2023-03-13T01:18:44;98927.75;;;6.55;65.92
66762;BME280;53672;48.176;16.338;2023-03-13T01:23:45;98934.50;;;6.63;65.09
66762;BME280;53672;48.176;16.338;2023-03-13T01:28:47;98921.00;;;6.48;65.36
66762;BME280;53672;48.176;16.338;2023-03-13T01:33:49;98917.16;;;6.34;65.84
66762;BME280;53672;48.176;16.338;2023-03-13T01:38:51;98917.09;;;6.24;66.17
66762;BME280;53672;48.176;16.338;2023-03-13T01:43:53;98906.31;;;6.13;67.08
66762;BME280;53672;48.176;16.338;2023-03-13T01:48:58;98914.53;;;6.02;67.60
66762;BME280;53672;48.176;16.338;2023-03-13T01:54:03;98916.84;;;5.88;67.60
66762;BME280;53672;48.176;16.338;2023-03-13T01:59:09;98909.38;;;5.63;69.01
66762;BME280;53672;48.176;16.338;2023-03-13T02:04:14;98912.84;;;5.64;69.59
66762;BME280;53672;48.176;16.338;2023-03-13T02:09:18;98908.03;;;5.61;70.37
66762;BME280;53672;48.176;16.338;2023-03-13T02:14:26;98907.44;;;5.59;70.81
66762;BME280;53672;48.176;16.338;2023-03-13T02:19:30;98914.19;;;5.61;70.48
66762;BME280;53672;48.176;16.338;2023-03-13T02:24:36;98904.31;;;5.67;70.49
66762;BME280;53672;48.176;16.338;2023-03-13T02:29:39;98908.09;;;5.71;69.96
66762;BME280;53672;48.176;16.338;2023-03-13T02:34:42;98905.72;;;5.75;70.32
66762;BME280;53672;48.176;16.338;2023-03-13T02:39:45;98905.72;;;5.75;70.20
66762;BME280;53672;48.176;16.338;2023-03-13T02:44:50;98911.84;;;5.70;70.56
66762;BME280;53672;48.176;16.338;2023-03-13T02:49:50;98912.88;;;5.69;70.38
66762;BME280;53672;48.176;16.338;2023-03-13T02:54:55;98917.25;;;5.75;70.30
66762;BME280;53672;48.176;16.338;2023-03-13T02:59:59;98923.03;;;5.67;70.58
66762;BME280;53672;48.176;16.338;2023-03-13T03:04:59;98911.19;;;5.58;70.88
66762;BME280;53672;48.176;16.338;2023-03-13T03:10:00;98919.25;;;5.63;71.33
66762;BME280;53672;48.176;16.338;2023-03-13T03:15:02;98924.28;;;5.54;71.26
66762;BME280;53672;48.176;16.338;2023-03-13T03:20:04;98924.50;;;5.53;70.88
66762;BME280;53672;48.176;16.338;2023-03-13T03:25:05;98929.44;;;5.66;71.53
66762;BME280;53672;48.176;16.338;2023-03-13T03:30:09;98924.19;;;5.76;72.42
66762;BME280;53672;48.176;16.338;2023-03-13T03:35:10;98929.66;;;5.86;72.10
66762;BME280;53672;48.176;16.338;2023-03-13T03:40:11;98928.59;;;5.87;72.15
66762;BME280;53672;48.176;16.338;2023-03-13T03:45:13;98932.38;;;5.91;72.47
66762;BME280;53672;48.176;16.338;2023-03-13T03:50:14;98933.38;;;5.85;72.67
66762;BME280;53672;48.176;16.338;2023-03-13T03:55:15;98919.75;;;5.87;72.72
66762;BME280;53672;48.176;16.338;2023-03-13T04:00:17;98926.63;;;5.78;73.01
66762;BME280;53672;48.176;16.338;2023-03-13T04:05:17;98938.25;;;5.88;72.75
66762;BME280;53672;48.176;16.338;2023-03-13T04:10:18;98935.06;;;5.91;72.87
66762;BME280;53672;48.176;16.338;2023-03-13T04:15:20;98935.28;;;5.90;72.77
66762;BME280;53672;48.176;16.338;2023-03-13T04:20:20;98934.00;;;5.92;73.18
66762;BME280;53672;48.176;16.338;2023-03-13T04:25:21;98925.03;;;6.08;72.70
66762;BME280;53672;48.176;16.338;2023-03-13T04:30:23;98916.25;;;6.18;72.25
66762;BME280;53672;48.176;16.338;2023-03-13T04:35:23;98913.06;;;6.16;72.16
66762;BME280;53672;48.176;16.338;2023-03-13T04:40:24;98907.13;;;6.56;69.31
66762;BME280;53672;48.176;16.338;2023-03-13T04:45:26;98903.84;;;6.96;67.16
66762;BME280;53672;48.176;16.338;2023-03-13T04:50:26;98903.41;;;7.24;65.44
66762;BME280;53672;48.176;16.338;2023-03-13T04:55:27;98896.13;;;7.20;65.33
66762;BME280;53672;48.176;16.338;2023-03-13T05:00:28;98895.84;;;7.16;65.73
66762;BME280;53672;48.176;16.338;2023-03-13T05:05:29;98882.69;;;6.99;66.25
66762;BME280;53672;48.176;16.338;2023-03-13T05:10:29;98873.53;;;6.85;67.15
66762;BME280;53672;48.176;16.338;2023-03-13T05:15:31;98881.56;;;6.85;67.25
66762;BME280;53672;48.176;16.338;2023-03-13T05:20:32;98874.56;;;6.79;67.50
66762;BME280;53672;48.176;16.338;2023-03-13T05:25:32;98876.97;;;6.76;67.71
66762;BME280;53672;48.176;16.338;2023-03-13T05:30:34;98887.91;;;6.64;68.26
66762;BME280;53672;48.176;16.338;2023-03-13T05:35:35;98875.00;;;6.56;68.98
66762;BME280;53672;48.176;16.338;2023-03-13T05:40:36;98872.34;;;6.56;69.44
66762;BME280;53672;48.176;16.338;2023-03-13T05:45:38;98871.00;;;6.53;69.46
66762;BME280;53672;48.176;16.338;2023-03-13T05:50:38;98871.56;;;6.60;68.46
66762;BME280;53672;48.176;16.338;2023-03-13T05:55:39;98861.13;;;6.64;69.10
66762;BME280;53672;48.176;16.338;2023-03-13T06:00:40;98858.75;;;6.73;69.08
66762;BME280;53672;48.176;16.338;2023-03-13T06:05:41;98849.44;;;6.90;68.30
66762;BME280;53672;48.176;16.338;2023-03-13T06:10:41;98842.00;;;7.23;67.27
66762;BME280;53672;48.176;16.338;2023-03-13T06:15:50;98849.03;;;7.39;66.99
66762;BME280;53672;48.176;16.338;2023-03-13T06:20:55;98839.38;;;7.63;66.24
66762;BME280;53672;48.176;16.338;2023-03-13T06:25:56;98849.56;;;7.61;66.20
66762;BME280;53672;48.176;16.338;2023-03-13T06:31:01;98838.84;;;7.71;66.04
66762;BME280;53672;48.176;16.338;2023-03-13T06:36:02;98836.97;;;7.87;65.24
66762;BME280;53672;48.176;16.338;2023-03-13T06:41:03;98839.03;;;8.15;63.94
66762;BME280;53672;48.176;16.338;2023-03-13T06:46:06;98825.38;;;8.22;63.72
66762;BME280;53672;48.176;16.338;2023-03-13T06:51:10;98814.09;;;8.30;63.93
66762;BME280;53672;48.176;16.338;2023-03-13T06:56:10;98822.50;;;8.77;62.20
66762;BME280;53672;48.176;16.338;2023-03-13T07:01:13;98821.81;;;9.05;60.89
66762;BME280;53672;48.176;16.338;2023-03-13T07:06:15;98815.00;;;9.18;60.28
66762;BME280;53672;48.176;16.338;2023-03-13T07:11:15;98808.66;;;9.43;59.59
66762;BME280;53672;48.176;16.338;2023-03-13T07:16:17;98794.00;;;9.93;57.18
66762;BME280;53672;48.176;16.338;2023-03-13T07:21:18;98794.72;;;9.98;57.05
66762;BME280;53672;48.176;16.338;2023-03-13T07:26:18;98805.78;;;10.49;54.68
66762;BME280;53672;48.176;16.338;2023-03-13T07:31:20;98783.63;;;10.34;55.24
66762;BME280;53672;48.176;16.338;2023-03-13T07:36:21;98777.97;;;10.54;54.80
66762;BME280;53672;48.176;16.338;2023-03-13T07:41:22;98769.22;;;10.43;54.74
66762;BME280;53672;48.176;16.338;2023-03-13T07:46:24;98763.03;;;10.43;54.89
66762;BME280;53672;48.176;16.338;2023-03-13T07:51:25;98771.63;;;10.45;53.65
66762;BME280;53672;48.176;16.338;2023-03-13T07:56:25;98772.94;;;10.47;53.65
66762;BME280;53672;48.176;16.338;2023-03-13T08:01:27;98766.94;;;10.93;51.76
66762;BME280;53672;48.176;16.338;2023-03-13T08:06:29;98758.31;;;11.47;49.44
66762;BME280;53672;48.176;16.338;2023-03-13T08:11:30;98756.22;;;11.76;48.36
66762;BME280;53672;48.176;16.338;2023-03-13T08:16:33;98748.03;;;12.63;46.42
66762;BME280;53672;48.176;16.338;2023-03-13T08:21:35;98743.50;;;12.72;45.36
66762;BME280;53672;48.176;16.338;2023-03-13T08:26:37;98724.63;;;12.45;45.92
66762;BME280;53672;48.176;16.338;2023-03-13T08:31:42;98725.91;;;12.61;45.69
66762;BME280;53672;48.176;16.338;2023-03-13T08:36:43;98738.13;;;13.75;43.54
66762;BME280;53672;48.176;16.338;2023-03-13T08:41:44;98721.22;;;13.47;44.30
66762;BME280;53672;48.176;16.338;2023-03-13T08:46:46;98723.31;;;12.92;45.73
66762;BME280;53672;48.176;16.338;2023-03-13T08:51:46;98726.97;;;13.76;44.23
66762;BME280;53672;48.176;16.338;2023-03-13T08:56:47;98720.56;;;14.42;43.00
66762;BME280;53672;48.176;16.338;2023-03-13T09:01:49;98727.88;;;15.96;39.81
66762;BME280;53672;48.176;16.338;2023-03-13T09:06:49;98724.44;;;14.67;42.69
66762;BME280;53672;48.176;16.338;2023-03-13T09:11:50;98709.00;;;14.19;43.54
66762;BME280;53672;48.176;16.338;2023-03-13T09:16:52;98713.09;;;14.56;42.98
66762;BME280;53672;48.176;16.338;2023-03-13T09:21:52;98711.97;;;14.49;42.63
66762;BME280;53672;48.176;16.338;2023-03-13T09:26:53;98712.13;;;14.52;42.74
66762;BME280;53672;48.176;16.338;2023-03-13T09:31:55;98735.28;;;14.10;43.14
66762;BME280;53672;48.176;16.338;2023-03-13T09:36:55;98719.13;;;14.05;42.98
66762;BME280;53672;48.176;16.338;2023-03-13T09:42:02;98699.75;;;13.81;43.20
66762;BME280;53672;48.176;16.338;2023-03-13T09:47:12;98733.56;;;15.14;39.19
66762;BME280;53672;48.176;16.338;2023-03-13T09:52:15;98715.66;;;15.64;38.63
66762;BME280;53672;48.176;16.338;2023-03-13T09:57:22;98710.72;;;15.32;37.69
66762;BME280;53672;48.176;16.338;2023-03-13T10:02:30;98716.72;;;14.35;39.53
66762;BME280;53672;48.176;16.338;2023-03-13T10:07:31;98696.84;;;13.47;41.41
66762;BME280;53672;48.176;16.338;2023-03-13T10:12:38;98711.16;;;15.77;37.98
66762;BME280;53672;48.176;16.338;2023-03-13T10:17:41;98680.09;;;14.15;39.98
66762;BME280;53672;48.176;16.338;2023-03-13T10:22:43;98664.50;;;13.42;41.33
66762;BME280;53672;48.176;16.338;2023-03-13T10:27:48;98673.53;;;14.90;38.63
66762;BME280;53672;48.176;16.338;2023-03-13T10:32:53;98656.78;;;15.13;37.74
66762;BME280;53672;48.176;16.338;2023-03-13T10:38:02;98665.81;;;15.52;37.28
66762;BME280;53672;48.176;16.338;2023-03-13T10:43:04;98648.84;;;16.31;35.90
66762;BME280;53672;48.176;16.338;2023-03-13T10:48:12;98642.91;;;15.06;37.78
66762;BME280;53672;48.176;16.338;2023-03-13T10:53:23;98643.22;;;14.88;37.62
66762;BME280;53672;48.176;16.338;2023-03-13T10:58:29;98635.84;;;15.14;37.75
66762;BME280;53672;48.176;16.338;2023-03-13T11:03:34;98633.34;;;14.92;38.01
66762;BME280;53672;48.176;16.338;2023-03-13T11:08:35;98617.84;;;15.09;37.76
66762;BME280;53672;48.176;16.338;2023-03-13T11:13:39;98641.94;;;14.34;39.53
66762;BME280;53672;48.176;16.338;2023-03-13T11:18:56;98635.25;;;15.00;38.60
66762;BME280;53672;48.176;16.338;2023-03-13T11:24:06;98633.69;;;15.45;37.43
66762;BME280;53672;48.176;16.338;2023-03-13T11:29:15;98634.00;;;15.61;37.52
66762;BME280;53672;48.176;16.338;2023-03-13T11:34:23;98621.25;;;15.44;37.33
66762;BME280;53672;48.176;16.338;2023-03-13T11:39:39;98623.50;;;15.51;37.24
66762;BME280;53672;48.176;16.338;2023-03-13T11:44:50;98622.78;;;14.99;38.14
66762;BME280;53672;48.176;16.338;2023-03-13T11:50:11;98615.28;;;14.87;38.38
66762;BME280;53672;48.176;16.338;2023-03-13T11:55:24;98600.94;;;14.61;38.47
66762;BME280;53672;48.176;16.338;2023-03-13T12:00:30;98586.25;;;14.28;39.33
66762;BME280;53672;48.176;16.338;2023-03-13T12:05:40;98595.84;;;14.68;38.63
66762;BME280;53672;48.176;16.338;2023-03-13T12:10:46;98593.59;;;14.87;38.63
66762;BME280;53672;48.176;16.338;2023-03-13T12:15:50;98566.00;;;14.51;39.14
66762;BME280;53672;48.176;16.338;2023-03-13T12:20:57;98578.72;;;14.93;38.32
66762;BME280;53672;48.176;16.338;2023-03-13T12:26:04;98536.50;;;15.21;38.33
66762;BME280;53672;48.176;16.338;2023-03-13T12:31:12;98548.31;;;15.26;37.47
66762;BME280;53672;48.176;16.338;2023-03-13T12:36:21;98535.31;;;15.78;36.66
66762;BME280;53672;48.176;16.338;2023-03-13T12:41:26;98530.88;;;16.23;35.35
66762;BME280;53672;48.176;16.338;2023-03-13T12:46:39;98533.19;;;16.12;35.78
66762;BME280;53672;48.176;16.338;2023-03-13T12:51:53;98519.84;;;16.61;34.88
66762;BME280;53672;48.176;16.338;2023-03-13T12:57:08;98498.50;;;16.09;35.55
66762;BME280;53672;48.176;16.338;2023-03-13T13:02:15;98505.41;;;15.57;35.95
66762;BME280;53672;48.176;16.338;2023-03-13T13:07:21;98497.91;;;15.54;36.24
66762;BME280;53672;48.176;16.338;2023-03-13T13:12:24;98497.00;;;15.70;35.63
66762;BME280;53672;48.176;16.338;2023-03-13T13:17:39;98499.47;;;15.55;35.89
66762;BME280;53672;48.176;16.338;2023-03-13T13:22:49;98484.97;;;15.51;36.02
66762;BME280;53672;48.176;16.338;2023-03-13T13:27:49;98476.19;;;15.54;36.02
66762;BME280;53672;48.176;16.338;2023-03-13T13:32:51;98467.94;;;15.33;36.49
66762;BME280;53672;48.176;16.338;2023-03-13T13:38:20;98452.06;;;15.44;36.65
66762;BME280;53672;48.176;16.338;2023-03-13T13:43:30;98434.75;;;14.90;37.37
66762;BME280;53672;48.176;16.338;2023-03-13T13:48:32;98416.72;;;14.94;37.74
66762;BME280;53672;48.176;16.338;2023-03-13T13:53:41;98423.34;;;15.13;37.00
66762;BME280;53672;48.176;16.338;2023-03-13T13:58:44;98424.56;;;15.54;36.36
66762;BME280;53672;48.176;16.338;2023-03-13T14:03:46;98421.78;;;15.62;36.03
66762;BME280;53672;48.176;16.338;2023-03-13T14:08:54;98402.03;;;15.24;36.83
66762;BME280;53672;48.176;16.338;2023-03-13T14:14:09;98393.69;;;15.58;36.65
66762;BME280;53672;48.176;16.338;2023-03-13T14:19:20;98380.84;;;15.88;35.28
66762;BME280;53672;48.176;16.338;2023-03-13T14:24:23;98369.19;;;15.67;35.01
66762;BME280;53672;48.176;16.338;2023-03-13T14:29:23;98360.75;;;15.60;35.45
66762;BME280;53672;48.176;16.338;2023-03-13T14:34:24;98356.84;;;15.49;35.30
66762;BME280;53672;48.176;16.338;2023-03-13T14:39:37;98350.78;;;15.43;35.42
66762;BME280;53672;48.176;16.338;2023-03-13T14:44:43;98339.97;;;15.14;35.77
66762;BME280;53672;48.176;16.338;2023-03-13T14:49:45;98339.16;;;14.93;36.67
66762;BME280;53672;48.176;16.338;2023-03-13T14:54:53;98327.06;;;15.11;36.14
66762;BME280;53672;48.176;16.338;2023-03-13T15:00:20;98316.34;;;15.14;36.35
66762;BME280;53672;48.176;16.338;2023-03-13T15:05:30;98323.03;;;15.17;36.18
66762;BME280;53672;48.176;16.338;2023-03-13T15:10:33;98321.69;;;15.02;36.62
66762;BME280;53672;48.176;16.338;2023-03-13T15:15:34;98326.91;;;15.07;36.63
66762;BME280;53672;48.176;16.338;2023-03-13T15:20:34;98315.78;;;15.00;36.71
66762;BME280;53672;48.176;16.338;2023-03-13T15:25:36;98297.38;;;14.85;37.21
66762;BME280;53672;48.176;16.338;2023-03-13T15:30:37;98300.00;;;14.73;37.34
66762;BME280;53672;48.176;16.338;2023-03-13T15:35:37;98309.72;;;14.74;37.74
66762;BME280;53672;48.176;16.338;2023-03-13T15:40:39;98292.50;;;14.70;37.45
66762;BME280;53672;48.176;16.338;2023-03-13T15:45:42;98292.59;;;14.53;37.94
66762;BME280;53672;48.176;16.338;2023-03-13T15:50:43;98276.88;;;14.67;37.99
66762;BME280;53672;48.176;16.338;2023-03-13T15:55:45;98284.00;;;14.51;38.30
66762;BME280;53672;48.176;16.338;2023-03-13T16:00:46;98297.94;;;14.41;38.82
66762;BME280;53672;48.176;16.338;2023-03-13T16:05:47;98283.41;;;14.28;39.04
66762;BME280;53672;48.176;16.338;2023-03-13T16:10:49;98279.34;;;14.13;39.38
66762;BME280;53672;48.176;16.338;2023-03-13T16:15:50;98274.22;;;14.12;39.27
66762;BME280;53672;48.176;16.338;2023-03-13T16:20:51;98267.56;;;14.01;39.35
66762;BME280;53672;48.176;16.338;2023-03-13T16:25:53;98260.59;;;14.00;39.46
66762;BME280;53672;48.176;16.338;2023-03-13T16:30:54;98260.44;;;13.88;39.59
66762;BME280;53672;48.176;16.338;2023-03-13T16:35:54;98267.16;;;13.82;39.89
66762;BME280;53672;48.176;16.338;2023-03-13T16:40:56;98256.19;;;13.69;40.26
66762;BME280;53672;48.176;16.338;2023-03-13T16:45:57;98253.66;;;13.64;40.50
66762;BME280;53672;48.176;16.338;2023-03-13T16:50:58;98259.56;;;13.58;40.47
66762;BME280;53672;48.176;16.338;2023-03-13T16:56:00;98243.63;;;13.56;40.71
66762;BME280;53672;48.176;16.338;2023-03-13T17:01:01;98229.66;;;13.46;40.90
66762;BME280;53672;48.176;16.338;2023-03-13T17:06:02;98222.13;;;13.43;40.93
66762;BME280;53672;48.176;16.338;2023-03-13T17:11:04;98208.44;;;13.39;41.16
66762;BME280;53672;48.176;16.338;2023-03-13T17:16:10;98210.88;;;13.24;41.84
66762;BME280;53672;48.176;16.338;2023-03-13T17:21:14;98211.03;;;13.18;41.92
66762;BME280;53672;48.176;16.338;2023-03-13T17:26:19;98199.41;;;13.09;42.00
66762;BME280;53672;48.176;16.338;2023-03-13T17:31:21;98175.38;;;12.99;42.24
66762;BME280;53672;48.176;16.338;2023-03-13T17:36:24;98178.25;;;12.94;42.65
66762;BME280;53672;48.176;16.338;2023-03-13T17:41:27;98162.00;;;12.86;43.24
66762;BME280;53672;48.176;16.338;2023-03-13T17:46:33;98155.00;;;12.67;43.43
66762;BME280;53672;48.176;16.338;2023-03-13T17:51:34;98149.28;;;12.52;43.95
66762;BME280;53672;48.176;16.338;2023-03-13T17:56:38;98126.88;;;12.43;44.18
66762;BME280;53672;48.176;16.338;2023-03-13T18:01:39;98135.09;;;12.38;44.37
66762;BME280;53672;48.176;16.338;2023-03-13T18:06:42;98124.44;;;12.24;45.16
66762;BME280;53672;48.176;16.338;2023-03-13T18:11:46;98120.59;;;12.08;45.37
66762;BME280;53672;48.176;16.338;2023-03-13T18:16:47;98122.94;;;11.92;46.03
66762;BME280;53672;48.176;16.338;2023-03-13T18:21:50;98119.78;;;11.68;46.73
66762;BME280;53672;48.176;16.338;2023-03-13T18:26:52;98116.72;;;11.52;47.28
66762;BME280;53672;48.176;16.338;2023-03-13T18:31:54;98125.91;;;11.43;47.75
66762;BME280;53672;48.176;16.338;2023-03-13T18:36:55;98121.03;;;11.23;48.41
66762;BME280;53672;48.176;16.338;2023-03-13T18:41:58;98109.91;;;11.24;47.98
66762;BME280;53672;48.176;16.338;2023-03-13T18:47:00;98088.06;;;11.34;47.96
66762;BME280;53672;48.176;16.338;2023-03-13T18:52:01;98072.97;;;11.25;48.25
66762;BME280;53672;48.176;16.338;2023-03-13T18:57:11;98067.72;;;11.19;48.31
66762;BME280;53672;48.176;16.338;2023-03-13T19:02:14;98065.31;;;11.18;48.22
66762;BME280;53672;48.176;16.338;2023-03-13T19:07:21;98052.13;;;11.16;48.51
66762;BME280;53672;48.176;16.338;2023-03-13T19:12:25;98036.19;;;10.98;48.94
66762;BME280;53672;48.176;16.338;2023-03-13T19:17:26;98021.19;;;10.83;49.51
66762;BME280;53672;48.176;16.338;2023-03-13T19:22:27;98022.78;;;10.84;49.50
66762;BME280;53672;48.176;16.338;2023-03-13T19:27:31;98001.50;;;10.74;49.63
66762;BME280;53672;48.176;16.338;2023-03-13T19:32:32;97995.50;;;10.77;49.48
66762;BME280;53672;48.176;16.338;2023-03-13T19:37:34;97987.88;;;10.79;49.32
66762;BME280;53672;48.176;16.338;2023-03-13T19:42:36;97980.31;;;10.59;50.27
66762;BME280;53672;48.176;16.338;2023-03-13T19:47:37;97989.63;;;10.53;50.46
66762;BME280;53672;48.176;16.338;2023-03-13T19:52:38;97985.41;;;10.38;51.29
66762;BME280;53672;48.176;16.338;2023-03-13T19:57:41;97968.16;;;10.39;50.59
66762;BME280;53672;48.176;16.338;2023-03-13T20:02:42;97959.03;;;10.49;50.48
66762;BME280;53672;48.176;16.338;2023-03-13T20:07:43;97952.28;;;10.60;49.83
66762;BME280;53672;48.176;16.338;2023-03-13T20:12:46;97950.31;;;10.52;50.13
66762;BME280;53672;48.176;16.338;2023-03-13T20:17:48;97930.81;;;10.46;50.29
66762;BME280;53672;48.176;16.338;2023-03-13T20:22:49;97921.94;;;10.46;50.66
66762;BME280;53672;48.176;16.338;2023-03-13T20:27:52;97909.25;;;10.46;51.38
66762;BME280;53672;48.176;16.338;2023-03-13T20:32:53;97903.69;;;10.43;52.00
66762;BME280;53672;48.176;16.338;2023-03-13T20:37:54;97883.88;;;10.39;52.54
66762;BME280;53672;48.176;16.338;2023-03-13T20:42:56;97862.75;;;10.24;53.21
66762;BME280;53672;48.176;16.338;2023-03-13T20:47:57;97861.81;;;10.06;54.16
66762;BME280;53672;48.176;16.338;2023-03-13T20:52:58;97851.66;;;10.03;54.61
66762;BME280;53672;48.176;16.338;2023-03-13T20:58:01;97843.03;;;9.92;55.16
66762;BME280;53672;48.176;16.338;2023-03-13T21:03:02;97844.09;;;9.83;55.68
66762;BME280;53672;48.176;16.338;2023-03-13T21:08:03;97831.38;;;9.75;56.30
66762;BME280;53672;48.176;16.338;2023-03-13T21:13:06;97815.72;;;9.54;56.82
66762;BME280;53672;48.176;16.338;2023-03-13T21:18:08;97808.00;;;9.39;58.03
66762;BME280;53672;48.176;16.338;2023-03-13T21:23:08;97788.44;;;9.25;58.58
66762;BME280;53672;48.176;16.338;2023-03-13T21:28:10;97793.66;;;9.08;59.05
66762;BME280;53672;48.176;16.338;2023-03-13T21:33:11;97779.78;;;8.92;60.06
66762;BME280;53672;48.176;16.338;2023-03-13T21:38:12;97768.06;;;8.88;60.17
66762;BME280;53672;48.176;16.338;2023-03-13T21:43:14;97732.88;;;8.76;60.91
66762;BME280;53672;48.176;16.338;2023-03-13T21:48:14;97723.06;;;8.58;61.63
66762;BME280;53672;48.176;16.338;2023-03-13T21:53:15;97716.59;;;8.59;62.00
66762;BME280;53672;48.176;16.338;2023-03-13T21:58:17;97727.47;;;9.12;60.64
66762;BME280;53672;48.176;16.338;2023-03-13T22:03:18;97724.22;;;9.46;59.59
66762;BME280;53672;48.176;16.338;2023-03-13T22:08:18;97700.53;;;9.56;59.67
66762;BME280;53672;48.176;16.338;2023-03-13T22:13:20;97703.16;;;9.70;59.30
66762;BME280;53672;48.176;16.338;2023-03-13T22:18:21;97680.97;;;9.64;59.49
66762;BME280;53672;48.176;16.338;2023-03-13T22:23:21;97668.06;;;9.75;59.26
66762;BME280;53672;48.176;16.338;2023-03-13T22:28:23;97658.84;;;9.67;59.87
66762;BME280;53672;48.176;16.338;2023-03-13T22:33:24;97632.16;;;9.49;61.13
66762;BME280;53672;48.176;16.338;2023-03-13T22:38:25;97612.38;;;9.45;61.46
66762;BME280;53672;48.176;16.338;2023-03-13T22:43:27;97603.97;;;9.38;61.78
66762;BME280;53672;48.176;16.338;2023-03-13T22:48:28;97592.91;;;9.39;62.06
66762;BME280;53672;48.176;16.338;2023-03-13T22:53:28;97571.97;;;9.28;62.79
66762;BME280;53672;48.176;16.338;2023-03-13T22:58:31;97560.72;;;9.26;63.05
66762;BME280;53672;48.176;16.338;2023-03-13T23:03:32;97543.81;;;9.25;62.92
66762;BME280;53672;48.176;16.338;2023-03-13T23:08:33;97547.00;;;9.27;63.27
66762;BME280;53672;48.176;16.338;2023-03-13T23:13:35;97537.97;;;9.32;62.99
66762;BME280;53672;48.176;16.338;2023-03-13T23:18:36;97531.78;;;9.23;63.57
66762;BME280;53672;48.176;16.338;2023-03-13T23:23:37;97520.50;;;9.12;64.13
66762;BME280;53672;48.176;16.338;2023-03-13T23:28:39;97516.22;;;9.11;64.30
66762;BME280;53672;48.176;16.338;2023-03-13T23:33:40;97526.34;;;9.05;64.69
66762;BME280;53672;48.176;16.338;2023-03-13T23:38:41;97522.81;;;8.96;64.76
66762;BME280;53672;48.176;16.338;2023-03-13T23:43:43;97497.03;;;8.87;65.54
66762;BME280;53672;48.176;16.338;2023-03-13T23:48:44;97484.34;;;8.79;65.92
66762;BME280;53672;48.176;16.338;2023-03-13T23:53:45;97474.59;;;8.60;66.90
66762;BME280;53672;48.176;16.338;2023-03-13T23:58:47;97466.53;;;8.60;66.89
